createdAt,value
2022-12-12T00:01:34.685Z,-2.45
2022-12-12T00:04:01.023Z,-2.46
2022-12-12T00:06:28.221Z,-2.47
2022-12-12T00:08:55.072Z,-2.57
2022-12-12T00:11:22.732Z,-2.64
2022-12-12T00:13:49.710Z,-2.65
2022-12-12T00:16:16.574Z,-2.59
2022-12-12T00:18:43.046Z,-2.57
2022-12-12T00:21:19.273Z,-2.53
2022-12-12T00:23:45.979Z,-2.58
2022-12-12T00:26:19.228Z,-2.66
2022-12-12T00:28:46.146Z,-2.70
2022-12-12T00:31:12.877Z,-2.70
2022-12-12T00:33:39.505Z,-2.84
2022-12-12T00:36:06.527Z,-2.90
2022-12-12T00:38:33.081Z,-2.89
2022-12-12T00:41:01.112Z,-2.89
2022-12-12T00:43:27.566Z,-2.93
2022-12-12T00:45:54.206Z,-2.95
2022-12-12T00:48:20.983Z,-2.94
2022-12-12T00:50:47.421Z,-2.97
2022-12-12T00:53:13.787Z,-2.99
2022-12-12T00:55:40.253Z,-2.97
2022-12-12T00:58:06.599Z,-2.94
2022-12-12T01:00:33.834Z,-2.93
2022-12-12T01:03:00.606Z,-2.96
2022-12-12T01:05:27.965Z,-3.01
2022-12-12T01:07:54.302Z,-3.00
2022-12-12T01:10:20.730Z,-2.97
2022-12-12T01:12:47.103Z,-3.00
2022-12-12T01:15:13.657Z,-2.89
2022-12-12T01:17:40.170Z,-2.93
2022-12-12T01:20:14.748Z,-2.94
2022-12-12T01:22:41.048Z,-3.02
2022-12-12T01:25:08.045Z,-3.05
2022-12-12T01:27:34.478Z,-3.09
2022-12-12T01:30:00.824Z,-3.12
2022-12-12T01:32:28.510Z,-3.15
2022-12-12T01:34:55.042Z,-3.20
2022-12-12T01:37:21.435Z,-3.17
2022-12-12T01:39:48.191Z,-3.22
2022-12-12T01:42:18.831Z,-3.22
2022-12-12T01:44:48.850Z,-3.26
2022-12-12T01:47:18.228Z,-3.31
2022-12-12T01:49:49.353Z,-3.36
2022-12-12T01:52:21.388Z,-3.35
2022-12-12T01:54:53.136Z,-3.38
2022-12-12T01:57:29.893Z,-3.37
2022-12-12T01:59:58.316Z,-3.41
2022-12-12T02:02:25.168Z,-3.44
2022-12-12T02:04:51.747Z,-3.48
2022-12-12T02:07:18.199Z,-3.54
2022-12-12T02:09:47.254Z,-3.57
2022-12-12T02:12:15.166Z,-3.59
2022-12-12T02:14:46.363Z,-3.61
2022-12-12T02:17:31.854Z,-3.66
2022-12-12T02:20:19.266Z,-3.69
2022-12-12T02:22:54.316Z,-3.73
2022-12-12T02:25:42.368Z,-3.79
2022-12-12T02:28:24.345Z,-3.68
2022-12-12T02:30:59.383Z,-3.85
2022-12-12T02:33:50.644Z,-3.92
2022-12-12T02:36:30.562Z,-3.92
2022-12-12T02:38:59.868Z,-4.00
2022-12-12T02:41:46.612Z,-4.06
2022-12-12T02:44:57.814Z,-4.14
2022-12-12T02:47:29.689Z,-4.19
2022-12-12T02:50:02.964Z,-4.21
2022-12-12T02:52:29.806Z,-4.23
2022-12-12T02:54:56.260Z,-4.25
2022-12-12T02:57:24.771Z,-4.32
2022-12-12T03:00:02.338Z,-4.37
2022-12-12T03:03:10.081Z,-4.39
2022-12-12T03:06:03.601Z,-4.40
2022-12-12T03:08:53.092Z,-4.45
2022-12-12T03:11:43.611Z,-4.44
2022-12-12T03:14:20.340Z,-4.41
2022-12-12T03:17:13.045Z,-4.47
2022-12-12T03:19:46.201Z,-4.47
2022-12-12T03:22:24.953Z,-4.51
2022-12-12T03:25:07.526Z,-4.48
2022-12-12T03:28:09.028Z,-4.47
2022-12-12T03:30:42.711Z,-4.48
2022-12-12T03:33:18.828Z,-4.48
2022-12-12T03:35:56.141Z,-4.41
2022-12-12T03:38:28.224Z,-4.47
2022-12-12T03:41:01.529Z,-4.40
2022-12-12T03:43:35.892Z,-4.31
2022-12-12T03:46:25.638Z,-4.33
2022-12-12T03:49:08.844Z,-4.34
2022-12-12T03:51:44.900Z,-4.37
2022-12-12T03:54:28.354Z,-4.47
2022-12-12T03:57:01.496Z,-4.40
2022-12-12T03:59:34.139Z,-4.51
2022-12-12T04:02:02.675Z,-4.49
2022-12-12T04:04:36.523Z,-4.67
2022-12-12T04:07:14.602Z,-4.56
2022-12-12T04:09:42.187Z,-4.63
2022-12-12T04:12:34.521Z,-4.56
2022-12-12T04:15:50.796Z,-4.63
2022-12-12T04:18:34.369Z,-4.72
2022-12-12T04:21:33.724Z,-4.71
2022-12-12T04:24:38.806Z,-4.67
2022-12-12T04:27:12.472Z,-4.79
2022-12-12T04:29:58.650Z,-4.84
2022-12-12T04:32:28.277Z,-4.93
2022-12-12T04:35:03.329Z,-4.91
2022-12-12T04:37:38.654Z,-5.00
2022-12-12T04:40:09.315Z,-5.03
2022-12-12T04:42:46.167Z,-5.00
2022-12-12T04:45:20.974Z,-4.98
2022-12-12T04:47:51.121Z,-5.07
2022-12-12T04:50:21.558Z,-5.01
2022-12-12T04:52:51.972Z,-4.98
2022-12-12T04:55:27.639Z,-5.02
2022-12-12T04:57:55.107Z,-4.98
2022-12-12T05:00:23.536Z,-5.14
2022-12-12T05:02:58.116Z,-5.12
2022-12-12T05:05:43.718Z,-5.12
2022-12-12T05:08:21.435Z,-5.08
2022-12-12T05:10:56.364Z,-5.06
2022-12-12T05:18:48.523Z,-5.15
2022-12-12T05:21:15.820Z,-5.10
2022-12-12T05:23:42.239Z,-5.34
2022-12-12T05:26:10.713Z,-5.27
2022-12-12T05:28:37.431Z,-5.27
2022-12-12T05:31:04.326Z,-5.34
2022-12-12T05:33:30.849Z,-5.37
2022-12-12T05:35:57.180Z,-5.48
2022-12-12T05:38:23.562Z,-5.43
2022-12-12T05:40:49.902Z,-5.44
2022-12-12T05:43:16.331Z,-5.47
2022-12-12T05:45:42.983Z,-5.51
2022-12-12T05:48:09.492Z,-5.46
2022-12-12T05:50:35.868Z,-5.45
2022-12-12T05:53:02.410Z,-5.38
2022-12-12T05:55:29.047Z,-5.29
2022-12-12T05:57:55.447Z,-5.17
2022-12-12T06:00:22.018Z,-5.11
2022-12-12T06:02:48.494Z,-5.14
2022-12-12T06:05:15.583Z,-5.34
2022-12-12T06:07:42.149Z,-5.31
2022-12-12T06:10:09.258Z,-5.39
2022-12-12T06:12:35.787Z,-5.47
2022-12-12T06:15:02.505Z,-5.41
2022-12-12T06:17:33.083Z,-5.42
2022-12-12T06:20:00.227Z,-5.45
2022-12-12T06:22:26.621Z,-5.51
2022-12-12T06:24:53.050Z,-5.49
2022-12-12T06:27:19.777Z,-5.50
2022-12-12T06:29:46.226Z,-5.36
2022-12-12T06:32:12.702Z,-5.47
2022-12-12T06:34:39.493Z,-5.38
2022-12-12T06:37:06.790Z,-5.39
2022-12-12T06:39:33.189Z,-5.43
2022-12-12T06:41:59.691Z,-5.48
2022-12-12T06:44:26.201Z,-5.43
2022-12-12T06:46:52.538Z,-5.44
2022-12-12T06:49:18.935Z,-5.38
2022-12-12T06:51:45.302Z,-5.26
2022-12-12T06:54:13.623Z,-5.31
2022-12-12T06:56:46.274Z,-5.27
2022-12-12T06:59:15.216Z,-5.17
2022-12-12T07:01:41.823Z,-5.09
2022-12-12T07:04:08.447Z,-5.03
2022-12-12T07:06:34.990Z,-5.01
2022-12-12T07:09:01.357Z,-4.92
2022-12-12T07:11:28.524Z,-4.97
2022-12-12T07:13:57.203Z,-4.92
2022-12-12T07:16:23.864Z,-4.85
2022-12-12T07:18:50.640Z,-4.82
2022-12-12T07:21:19.448Z,-4.78
2022-12-12T07:23:46.491Z,-4.92
2022-12-12T07:26:15.434Z,-4.83
2022-12-12T07:28:42.148Z,-4.81
2022-12-12T07:31:11.019Z,-4.73
2022-12-12T07:33:43.566Z,-4.73
2022-12-12T07:36:11.593Z,-4.78
2022-12-12T07:38:38.502Z,-4.92
2022-12-12T07:41:06.653Z,-4.86
2022-12-12T07:43:39.996Z,-4.89
2022-12-12T07:46:11.179Z,-4.78
2022-12-12T07:48:37.741Z,-4.92
2022-12-12T07:51:04.693Z,-4.92
2022-12-12T07:53:31.168Z,-4.96
2022-12-12T07:55:57.636Z,-4.75
2022-12-12T07:58:24.057Z,-4.66
2022-12-12T08:00:50.474Z,-4.59
2022-12-12T08:03:17.034Z,-4.49
2022-12-12T08:05:43.869Z,-4.46
2022-12-12T08:08:10.767Z,-4.33
2022-12-12T08:10:40.404Z,-4.29
2022-12-12T08:13:07.111Z,-4.39
2022-12-12T08:15:33.970Z,-4.39
2022-12-12T08:18:00.501Z,-4.31
2022-12-12T08:20:27.046Z,-4.20
2022-12-12T08:22:53.377Z,-4.16
2022-12-12T08:25:19.883Z,-4.19
2022-12-12T08:27:46.250Z,-4.20
2022-12-12T08:30:13.099Z,-4.52
2022-12-12T08:32:39.590Z,-4.52
2022-12-12T08:35:06.678Z,-4.32
2022-12-12T08:37:33.052Z,-4.16
2022-12-12T08:39:59.408Z,-4.06
2022-12-12T08:42:26.112Z,-3.94
2022-12-12T08:44:52.739Z,-3.96
2022-12-12T08:47:19.052Z,-4.05
2022-12-12T08:49:45.453Z,-3.94
2022-12-12T08:52:12.055Z,-3.68
2022-12-12T08:54:38.452Z,-4.03
2022-12-12T08:57:04.897Z,-3.98
2022-12-12T08:59:31.261Z,-4.02
2022-12-12T09:01:57.673Z,-4.15
2022-12-12T09:04:24.422Z,-3.91
2022-12-12T09:06:50.876Z,-3.87
2022-12-12T09:09:17.360Z,-4.01
2022-12-12T09:11:44.176Z,-4.00
2022-12-12T09:14:10.750Z,-3.92
2022-12-12T09:16:37.140Z,-3.81
2022-12-12T09:19:04.794Z,-3.69
2022-12-12T09:21:31.181Z,-3.55
2022-12-12T09:23:57.552Z,-3.42
2022-12-12T09:26:24.056Z,-3.17
2022-12-12T09:28:50.442Z,-2.94
2022-12-12T09:31:16.854Z,-2.95
2022-12-12T09:33:43.352Z,-2.98
2022-12-12T09:36:11.718Z,-2.91
2022-12-12T09:38:38.154Z,-2.92
2022-12-12T09:41:18.617Z,-2.93
2022-12-12T09:43:50.405Z,-2.84
2022-12-12T09:46:40.393Z,-2.78
2022-12-12T09:49:44.255Z,-2.52
2022-12-12T09:52:17.559Z,-2.56
2022-12-12T09:54:44.574Z,-2.45
2022-12-12T09:57:25.740Z,-2.53
2022-12-12T10:00:02.099Z,-2.29
2022-12-12T10:02:47.154Z,-2.28
2022-12-12T10:05:49.232Z,-2.62
2022-12-12T10:08:42.676Z,-2.67
2022-12-12T10:11:13.542Z,-2.57
2022-12-12T10:13:39.871Z,-2.67
2022-12-12T10:16:14.271Z,-2.29
2022-12-12T10:18:44.991Z,-1.79
2022-12-12T10:21:21.107Z,-1.51
2022-12-12T10:23:53.231Z,-1.43
2022-12-12T10:26:25.326Z,-1.02
2022-12-12T10:28:55.772Z,-1.25
2022-12-12T10:32:01.271Z,-1.25
2022-12-12T10:34:36.813Z,-0.90
2022-12-12T10:37:33.632Z,-0.90
2022-12-12T10:40:15.347Z,-1.02
2022-12-12T10:42:55.362Z,-1.27
2022-12-12T10:45:32.202Z,-1.13
2022-12-12T10:47:58.683Z,-1.01
2022-12-12T10:50:39.475Z,-0.70
2022-12-12T10:53:10.169Z,-0.71
2022-12-12T10:55:45.707Z,-0.34
2022-12-12T10:58:12.348Z,-0.75
2022-12-12T11:00:43.562Z,-0.39
2022-12-12T11:03:19.267Z,-0.24
2022-12-12T11:05:47.595Z,-0.64
2022-12-12T11:08:19.889Z,-0.31
2022-12-12T11:10:59.459Z,-0.34
2022-12-12T11:13:26.041Z,-0.04
2022-12-12T11:16:13.031Z,-0.16
2022-12-12T11:18:40.088Z,0.36
2022-12-12T11:21:10.871Z,0.68
2022-12-12T11:23:52.572Z,0.76
2022-12-12T11:26:21.564Z,0.41
2022-12-12T11:29:02.290Z,0.66
2022-12-12T11:31:34.151Z,0.60
2022-12-12T11:34:04.360Z,0.72
2022-12-12T11:36:38.172Z,0.65
2022-12-12T11:39:28.122Z,0.99
2022-12-12T11:41:59.220Z,0.65
2022-12-12T11:44:32.221Z,0.53
2022-12-12T11:47:25.552Z,0.61
2022-12-12T11:49:58.664Z,0.21
2022-12-12T11:52:33.257Z,0.16
2022-12-12T11:55:00.766Z,0.39
2022-12-12T11:57:27.161Z,0.12
2022-12-12T12:00:14.859Z,0.49
2022-12-12T12:02:50.242Z,0.56
2022-12-12T12:05:32.965Z,0.63
2022-12-12T12:08:24.113Z,0.02
2022-12-12T12:11:05.685Z,0.36
2022-12-12T12:14:03.827Z,0.86
2022-12-12T12:17:08.831Z,0.79
2022-12-12T12:20:01.190Z,0.61
2022-12-12T12:22:57.417Z,0.65
2022-12-12T12:25:28.241Z,1.02
2022-12-12T12:28:06.682Z,1.45
2022-12-12T12:31:08.525Z,1.04
2022-12-12T12:34:30.873Z,0.71
2022-12-12T12:37:36.815Z,1.14
2022-12-12T12:40:31.467Z,1.42
2022-12-12T12:43:16.434Z,1.64
2022-12-12T12:45:56.392Z,1.33
2022-12-12T12:48:30.770Z,0.85
2022-12-12T12:51:33.731Z,1.19
2022-12-12T12:54:06.407Z,1.42
2022-12-12T12:56:44.226Z,1.33
2022-12-12T12:59:17.154Z,1.07
2022-12-12T13:01:47.589Z,1.28
2022-12-12T13:04:24.203Z,1.24
2022-12-12T13:07:41.092Z,1.34
2022-12-12T13:10:21.895Z,1.37
2022-12-12T13:13:06.955Z,0.92
2022-12-12T13:15:39.278Z,1.08
2022-12-12T13:18:12.130Z,1.03
2022-12-12T13:20:42.028Z,0.90
2022-12-12T13:23:20.454Z,1.20
2022-12-12T13:25:58.273Z,0.91
2022-12-12T13:28:33.025Z,0.97
2022-12-12T13:31:22.374Z,1.25
2022-12-12T13:34:04.399Z,1.16
2022-12-12T13:36:40.668Z,1.09
2022-12-12T13:39:22.297Z,1.31
2022-12-12T13:41:59.814Z,0.91
2022-12-12T13:44:38.519Z,0.97
2022-12-12T13:47:23.546Z,0.95
2022-12-12T13:49:55.137Z,1.06
2022-12-12T13:52:26.954Z,0.91
2022-12-12T13:55:12.957Z,0.90
2022-12-12T13:57:57.404Z,0.13
2022-12-12T14:00:25.507Z,0.06
2022-12-12T14:03:01.302Z,0.21
2022-12-12T14:05:43.330Z,0.38
2022-12-12T14:08:12.524Z,0.43
2022-12-12T14:10:52.393Z,0.45
2022-12-12T14:13:21.574Z,0.55
2022-12-12T14:15:58.460Z,0.50
2022-12-12T14:18:30.483Z,0.46
2022-12-12T14:21:07.254Z,0.39
2022-12-12T14:23:42.229Z,0.33
2022-12-12T14:26:27.242Z,0.32
2022-12-12T14:29:18.488Z,0.29
2022-12-12T14:32:06.695Z,0.27
2022-12-12T14:34:51.886Z,0.05
2022-12-12T14:37:52.129Z,-0.28
2022-12-12T14:40:22.919Z,-0.44
2022-12-12T14:43:18.480Z,-0.42
2022-12-12T14:45:51.782Z,-0.34
2022-12-12T14:48:29.782Z,-0.25
2022-12-12T14:51:27.703Z,-0.15
2022-12-12T14:53:58.813Z,-0.10
2022-12-12T14:56:29.847Z,-0.15
2022-12-12T14:59:02.640Z,-0.12
2022-12-12T15:01:34.110Z,-0.05
2022-12-12T15:04:04.084Z,-0.13
2022-12-12T15:06:45.456Z,-0.18
2022-12-12T15:09:30.315Z,-0.33
2022-12-12T15:12:05.912Z,-0.46
2022-12-12T15:14:32.264Z,-0.51
2022-12-12T15:17:01.887Z,-0.27
2022-12-12T15:19:41.288Z,-0.51
2022-12-12T15:22:28.536Z,-0.61
2022-12-12T15:24:56.703Z,-0.65
2022-12-12T15:27:46.978Z,-0.70
2022-12-12T15:30:30.792Z,-0.78
2022-12-12T15:33:01.190Z,-0.94
2022-12-12T15:35:28.028Z,-1.05
2022-12-12T15:38:02.010Z,-1.16
2022-12-12T15:40:30.978Z,-1.27
2022-12-12T15:43:07.255Z,-1.36
2022-12-12T15:45:39.897Z,-1.45
2022-12-12T15:48:12.492Z,-1.51
2022-12-12T15:50:41.663Z,-1.57
2022-12-12T15:53:24.901Z,-1.61
2022-12-12T15:56:06.582Z,-1.65
2022-12-12T15:58:38.073Z,-1.70
2022-12-12T16:01:20.653Z,-1.73
2022-12-12T16:04:03.421Z,-1.84
2022-12-12T16:06:42.224Z,-1.90
2022-12-12T16:09:11.680Z,-1.89
2022-12-12T16:11:46.107Z,-1.95
2022-12-12T16:14:24.866Z,-2.08
2022-12-12T16:17:05.722Z,-2.08
2022-12-12T16:19:47.423Z,-2.12
2022-12-12T16:22:23.915Z,-2.08
2022-12-12T16:24:53.425Z,-2.23
2022-12-12T16:27:20.461Z,-2.32
2022-12-12T16:29:47.655Z,-2.38
2022-12-12T16:32:17.428Z,-2.48
2022-12-12T16:34:44.967Z,-2.49
2022-12-12T16:37:16.437Z,-2.54
2022-12-12T16:39:42.997Z,-2.51
2022-12-12T16:42:16.668Z,-2.57
2022-12-12T16:44:43.925Z,-2.45
2022-12-12T16:47:17.966Z,-2.47
2022-12-12T16:49:45.055Z,-2.43
2022-12-12T16:52:13.399Z,-2.44
2022-12-12T16:54:40.609Z,-2.48
2022-12-12T16:57:07.090Z,-2.53
2022-12-12T16:59:33.703Z,-2.58
2022-12-12T17:02:00.163Z,-2.53
2022-12-12T17:04:26.755Z,-2.55
2022-12-12T17:06:53.705Z,-2.51
2022-12-12T17:09:21.579Z,-2.62
2022-12-12T17:11:51.012Z,-2.69
2022-12-12T17:14:23.123Z,-2.74
2022-12-12T17:16:50.455Z,-2.63
2022-12-12T17:19:17.326Z,-2.73
2022-12-12T17:21:43.944Z,-2.79
2022-12-12T17:24:10.817Z,-2.89
2022-12-12T17:26:38.732Z,-2.94
2022-12-12T17:29:07.122Z,-2.86
2022-12-12T17:31:34.159Z,-2.89
2022-12-12T17:34:01.781Z,-2.84
2022-12-12T17:36:28.227Z,-2.86
2022-12-12T17:38:54.992Z,-2.98
2022-12-12T17:41:21.408Z,-3.06
2022-12-12T17:43:53.621Z,-3.09
2022-12-12T17:46:22.464Z,-3.12
2022-12-12T17:48:49.125Z,-3.14
2022-12-12T17:51:21.588Z,-3.25
2022-12-12T17:53:48.087Z,-3.28
2022-12-12T17:56:17.279Z,-3.37
2022-12-12T17:58:45.717Z,-3.36
2022-12-12T18:01:15.690Z,-3.38
2022-12-12T18:03:43.204Z,-3.41
2022-12-12T18:06:10.507Z,-3.40
2022-12-12T18:08:38.331Z,-3.53
2022-12-12T18:11:09.794Z,-3.64
2022-12-12T18:13:36.866Z,-3.70
2022-12-12T18:16:03.448Z,-3.75
2022-12-12T18:18:29.928Z,-3.85
2022-12-12T18:20:56.520Z,-3.96
2022-12-12T18:23:22.944Z,-4.02
2022-12-12T18:25:49.669Z,-4.03
2022-12-12T18:28:16.044Z,-4.06
2022-12-12T18:30:42.443Z,-4.08
2022-12-12T18:33:10.838Z,-4.09
2022-12-12T18:35:37.319Z,-4.23
2022-12-12T18:38:03.960Z,-4.25
2022-12-12T18:40:30.583Z,-4.27
2022-12-12T18:42:57.026Z,-4.40
2022-12-12T18:45:23.462Z,-4.47
2022-12-12T18:47:50.166Z,-4.51
2022-12-12T18:50:16.793Z,-4.52
2022-12-12T18:52:43.359Z,-4.52
2022-12-12T18:55:10.716Z,-4.51
2022-12-12T18:57:37.350Z,-4.53
2022-12-12T19:00:05.094Z,-4.57
2022-12-12T19:02:32.661Z,-4.56
2022-12-12T19:04:59.887Z,-4.62
2022-12-12T19:07:26.305Z,-4.66
2022-12-12T19:09:52.893Z,-4.68
2022-12-12T19:12:19.492Z,-4.73
2022-12-12T19:15:08.125Z,-4.80
2022-12-12T19:17:32.332Z,-4.74
2022-12-12T19:19:58.736Z,-4.80
2022-12-12T19:25:13.619Z,-4.94
2022-12-12T19:27:39.984Z,-5.02
2022-12-12T19:30:07.108Z,-5.06
2022-12-12T19:32:33.563Z,-5.08
2022-12-12T19:35:00.370Z,-5.13
2022-12-12T19:37:26.809Z,-5.06
2022-12-12T19:39:53.470Z,-4.95
2022-12-12T19:42:20.515Z,-4.97
2022-12-12T19:44:47.023Z,-5.04
2022-12-12T19:47:13.374Z,-5.06
2022-12-12T19:49:40.165Z,-5.12
2022-12-12T19:52:12.155Z,-5.12
2022-12-12T19:54:40.378Z,-5.11
2022-12-12T19:57:06.977Z,-5.13
2022-12-12T19:59:33.328Z,-5.21
2022-12-12T20:01:59.757Z,-5.25
2022-12-12T20:04:26.234Z,-5.34
2022-12-12T20:06:52.913Z,-5.34
2022-12-12T20:09:25.345Z,-5.37
2022-12-12T20:11:52.657Z,-5.41
2022-12-12T20:14:24.472Z,-5.43
2022-12-12T20:16:52.515Z,-5.42
2022-12-12T20:19:20.389Z,-5.50
2022-12-12T20:22:04.030Z,-5.63
2022-12-12T20:24:33.822Z,-5.67
2022-12-12T20:27:02.131Z,-5.77
2022-12-12T20:29:28.727Z,-5.80
2022-12-12T20:31:55.267Z,-5.84
2022-12-12T20:34:21.948Z,-5.89
2022-12-12T20:36:48.641Z,-5.79
2022-12-12T20:39:17.872Z,-5.77
2022-12-12T20:41:44.753Z,-5.78
2022-12-12T20:44:13.351Z,-5.81
2022-12-12T20:46:42.115Z,-5.85
2022-12-12T20:49:10.430Z,-5.84
2022-12-12T20:54:24.723Z,-5.86
2022-12-12T20:56:52.396Z,-5.87
2022-12-12T20:59:18.793Z,-5.85
2022-12-12T21:01:45.775Z,-5.86
2022-12-12T21:04:12.314Z,-5.93
2022-12-12T21:06:41.622Z,-5.95
2022-12-12T21:09:10.683Z,-5.87
2022-12-12T21:11:38.627Z,-5.96
2022-12-12T21:14:06.743Z,-6.00
2022-12-12T21:16:36.755Z,-6.04
2022-12-12T21:19:06.395Z,-6.02
2022-12-12T21:21:33.973Z,-5.98
2022-12-12T21:24:01.160Z,-5.97
2022-12-12T21:26:30.647Z,-6.06
2022-12-12T21:28:59.076Z,-6.17
2022-12-12T21:31:28.459Z,-6.19
2022-12-12T21:33:55.336Z,-6.13
2022-12-12T21:36:23.771Z,-6.13
2022-12-12T21:38:51.716Z,-6.12
2022-12-12T21:41:20.533Z,-6.11
2022-12-12T21:43:48.894Z,-6.15
2022-12-12T21:46:21.510Z,-6.12
2022-12-12T21:48:48.964Z,-6.17
2022-12-12T21:51:16.380Z,-6.19
2022-12-12T21:53:43.033Z,-6.23
2022-12-12T21:56:17.317Z,-6.25
2022-12-12T21:58:46.144Z,-6.31
2022-12-12T22:01:18.654Z,-6.35
2022-12-12T22:03:47.377Z,-6.35
2022-12-12T22:06:24.332Z,-6.38
2022-12-12T22:08:51.353Z,-6.33
2022-12-12T22:11:34.400Z,-6.35
2022-12-12T22:14:06.694Z,-6.46
2022-12-12T22:16:33.784Z,-6.49
2022-12-12T22:19:05.806Z,-6.58
2022-12-12T22:21:33.801Z,-6.64
2022-12-12T22:24:01.170Z,-6.71
2022-12-12T22:26:33.964Z,-6.78
2022-12-12T22:29:04.729Z,-6.85
2022-12-12T22:31:33.114Z,-6.87
2022-12-12T22:34:17.786Z,-6.92
2022-12-12T22:36:45.259Z,-6.96
2022-12-12T22:39:20.391Z,-7.00
2022-12-12T22:41:47.062Z,-7.05
2022-12-12T22:44:16.473Z,-6.97
2022-12-12T22:46:47.934Z,-6.98
2022-12-12T22:49:16.192Z,-7.04
2022-12-12T22:51:43.635Z,-6.96
2022-12-12T22:54:10.391Z,-6.95
2022-12-12T22:56:38.168Z,-6.97
2022-12-12T22:59:05.535Z,-6.92
2022-12-12T23:01:32.443Z,-6.91
2022-12-12T23:03:59.425Z,-6.95
2022-12-12T23:06:31.746Z,-6.98
2022-12-12T23:09:03.496Z,-6.99
2022-12-12T23:11:31.255Z,-6.86
2022-12-12T23:14:18.330Z,-6.95
2022-12-12T23:16:45.555Z,-7.02
2022-12-12T23:19:14.428Z,-7.05
2022-12-12T23:21:40.891Z,-7.03
2022-12-12T23:24:07.658Z,-7.03
2022-12-12T23:26:38.714Z,-7.03
2022-12-12T23:29:07.032Z,-7.02
2022-12-12T23:31:35.522Z,-7.06
2022-12-12T23:34:05.567Z,-7.10
2022-12-12T23:36:32.203Z,-7.14
2022-12-12T23:39:01.022Z,-7.20
2022-12-12T23:41:28.442Z,-7.25
2022-12-12T23:43:55.439Z,-7.21
2022-12-12T23:46:23.609Z,-7.19
2022-12-12T23:48:49.922Z,-7.22
2022-12-12T23:51:16.341Z,-7.16
2022-12-12T23:53:42.734Z,-7.22
2022-12-12T23:56:09.420Z,-7.21
2022-12-12T23:58:35.961Z,-7.22
